Time;durP1;ratioP1;P1;durP2;ratioP2;P2;SDS_P1;SDS_P2;PMS_P1;PMS_P2;Temp;Humidity;BMP_temperature;BMP_pressure;BME280_temperature;BME280_humidity;BME280_pressure;Samples;Min_cycle;Max_cycle;Signal;HPM_P1;HPM_P2
2022/07/09 00:01:09;;;;;;;1.92;1.55;;;;;;;;;;6085539;23;20014;-58
2022/07/09 00:03:36;;;;;;;2.20;2.00;;;;;;;;;;6085055;23;20050;-58
2022/07/09 00:06:03;;;;;;;2.53;2.03;;;;;;;;;;6082654;23;20018;-58
2022/07/09 00:08:29;;;;;;;3.00;1.83;;;;;;;;;;6078146;23;20042;-58
2022/07/09 00:10:57;;;;;;;4.63;2.15;;;;;;;;;;6086708;23;20065;-57
2022/07/09 00:13:24;;;;;;;5.47;1.83;;;;;;;;;;6078550;23;20547;-58
2022/07/09 00:15:52;;;;;;;2.22;1.95;;;;;;;;;;6081990;23;20265;-58
2022/07/09 00:18:19;;;;;;;3.15;1.98;;;;;;;;;;6078135;23;20022;-58
2022/07/09 00:20:46;;;;;;;2.53;1.98;;;;;;;;;;6087644;23;20026;-58
2022/07/09 00:23:13;;;;;;;3.00;1.80;;;;;;;;;;6084786;23;20022;-58
2022/07/09 00:25:39;;;;;;;2.28;1.70;;;;;;;;;;6079080;23;20066;-58
2022/07/09 00:28:07;;;;;;;2.92;1.77;;;;;;;;;;6083908;23;20276;-58
2022/07/09 00:30:34;;;;;;;3.38;2.20;;;;;;;;;;6072603;23;20033;-58
2022/07/09 00:33:00;;;;;;;2.55;1.75;;;;;;;;;;6085899;23;20021;-57
2022/07/09 00:35:27;;;;;;;4.00;1.70;;;;;;;;;;6085062;23;20042;-58
2022/07/09 00:37:53;;;;;;;2.53;1.70;;;;;;;;;;6084594;23;20313;-58
2022/07/09 00:40:20;;;;;;;2.70;1.83;;;;;;;;;;6081475;23;20014;-57
2022/07/09 00:42:46;;;;;;;2.22;1.80;;;;;;;;;;6083544;23;20058;-57
2022/07/09 00:45:17;;;;;;;1.73;1.50;;;;;;;;;;6079836;23;20081;-58
2022/07/09 00:47:43;;;;;;;2.20;1.92;;;;;;;;;;6083985;23;20093;-58
2022/07/09 00:50:10;;;;;;;2.38;1.70;;;;;;;;;;6083271;23;20526;-58
2022/07/09 00:52:37;;;;;;;3.22;2.15;;;;;;;;;;6087649;23;20087;-58
2022/07/09 00:55:04;;;;;;;2.28;1.75;;;;;;;;;;6074282;23;20401;-58
2022/07/09 00:57:31;;;;;;;3.58;1.65;;;;;;;;;;6082868;23;20018;-58
2022/07/09 00:59:58;;;;;;;4.05;1.83;;;;;;;;;;6080043;23;20040;-58
2022/07/09 01:02:26;;;;;;;2.67;1.40;;;;;;;;;;6080511;23;20042;-58
2022/07/09 01:04:52;;;;;;;1.70;1.58;;;;;;;;;;6076915;23;20062;-58
2022/07/09 01:07:19;;;;;;;2.30;2.10;;;;;;;;;;6087914;23;20018;-58
2022/07/09 01:09:46;;;;;;;3.08;1.90;;;;;;;;;;6065867;23;20098;-58
2022/07/09 01:12:12;;;;;;;1.75;1.65;;;;;;;;;;6087176;23;20018;-58
2022/07/09 01:14:39;;;;;;;2.10;1.75;;;;;;;;;;6078703;23;20054;-58
2022/07/09 01:17:06;;;;;;;3.53;2.15;;;;;;;;;;6087668;23;20018;-58
2022/07/09 01:19:34;;;;;;;3.25;2.00;;;;;;;;;;6069328;23;20406;-58
2022/07/09 01:22:02;;;;;;;3.35;1.65;;;;;;;;;;6084824;23;20023;-58
2022/07/09 01:24:29;;;;;;;5.93;2.03;;;;;;;;;;6075289;23;20085;-58
2022/07/09 01:26:55;;;;;;;2.08;1.50;;;;;;;;;;6090511;23;20014;-59
2022/07/09 01:29:22;;;;;;;1.90;1.70;;;;;;;;;;6079144;23;20019;-57
2022/07/09 01:31:49;;;;;;;3.10;1.80;;;;;;;;;;6084421;23;20018;-59
2022/07/09 01:34:15;;;;;;;1.77;1.63;;;;;;;;;;6074155;23;20614;-58
2022/07/09 01:36:42;;;;;;;2.15;1.70;;;;;;;;;;6085393;23;20093;-57
2022/07/09 01:39:10;;;;;;;2.22;1.80;;;;;;;;;;6072976;23;20019;-58
2022/07/09 01:41:36;;;;;;;4.40;2.00;;;;;;;;;;6088036;23;20049;-56
2022/07/09 01:44:03;;;;;;;2.65;1.95;;;;;;;;;;6077264;23;20022;-59
2022/07/09 01:46:29;;;;;;;1.67;1.35;;;;;;;;;;6087327;23;20089;-56
2022/07/09 01:48:56;;;;;;;1.85;1.75;;;;;;;;;;6076489;23;20022;-59
2022/07/09 01:51:22;;;;;;;2.03;1.40;;;;;;;;;;6087413;23;20029;-59
2022/07/09 01:53:49;;;;;;;1.90;1.40;;;;;;;;;;6073669;23;20050;-59
2022/07/09 01:56:17;;;;;;;3.15;2.10;;;;;;;;;;6084268;23;20014;-59
2022/07/09 01:58:44;;;;;;;4.55;1.70;;;;;;;;;;6079118;23;20018;-58
2022/07/09 02:01:11;;;;;;;4.13;2.13;;;;;;;;;;6082802;23;20021;-59
2022/07/09 02:03:38;;;;;;;2.45;1.70;;;;;;;;;;6044218;23;20414;-59
2022/07/09 02:06:05;;;;;;;3.15;1.80;;;;;;;;;;6052215;23;20045;-59
2022/07/09 02:08:32;;;;;;;1.38;1.25;;;;;;;;;;6081323;23;20015;-59
2022/07/09 02:11:00;;;;;;;1.52;1.42;;;;;;;;;;6090391;23;20018;-59
2022/07/09 02:13:28;;;;;;;1.90;1.50;;;;;;;;;;6090365;23;20573;-58
2022/07/09 02:15:55;;;;;;;1.83;1.67;;;;;;;;;;6082816;23;20086;-58
2022/07/09 02:18:21;;;;;;;3.22;1.63;;;;;;;;;;6087869;23;20022;-58
2022/07/09 02:20:48;;;;;;;2.17;1.50;;;;;;;;;;6081116;23;20015;-59
2022/07/09 02:23:14;;;;;;;1.50;1.40;;;;;;;;;;6088670;23;20018;-59
2022/07/09 02:25:41;;;;;;;2.20;1.58;;;;;;;;;;6078914;23;20019;-58
2022/07/09 02:28:07;;;;;;;1.95;1.50;;;;;;;;;;6085991;23;20037;-59
2022/07/09 02:30:36;;;;;;;1.98;1.60;;;;;;;;;;6086348;23;20018;-58
2022/07/09 02:33:03;;;;;;;3.90;1.70;;;;;;;;;;6086005;23;20024;-59
2022/07/09 02:35:30;;;;;;;2.92;2.05;;;;;;;;;;6091755;23;20018;-60
2022/07/09 02:37:56;;;;;;;7.38;2.00;;;;;;;;;;6075380;23;20377;-59
2022/07/09 02:40:23;;;;;;;1.67;1.58;;;;;;;;;;6087693;23;20014;-59
2022/07/09 02:42:49;;;;;;;2.47;1.48;;;;;;;;;;6083003;23;20090;-59
2022/07/09 02:45:16;;;;;;;4.25;1.60;;;;;;;;;;6092024;23;20014;-59
2022/07/09 02:47:43;;;;;;;2.60;1.70;;;;;;;;;;6085997;23;20022;-57
2022/07/09 02:50:10;;;;;;;2.47;2.08;;;;;;;;;;6091348;23;20018;-59
2022/07/09 02:52:37;;;;;;;1.90;1.63;;;;;;;;;;6075089;23;20773;-59
2022/07/09 02:55:05;;;;;;;1.83;1.63;;;;;;;;;;6086315;23;20393;-58
2022/07/09 02:57:31;;;;;;;1.63;1.52;;;;;;;;;;6083142;23;20026;-59
2022/07/09 02:59:59;;;;;;;2.47;1.70;;;;;;;;;;6089024;23;20018;-59
2022/07/09 03:02:25;;;;;;;2.33;1.92;;;;;;;;;;6077885;23;20265;-59
2022/07/09 03:04:53;;;;;;;2.33;1.75;;;;;;;;;;6076391;23;20029;-58
2022/07/09 03:07:20;;;;;;;2.03;1.73;;;;;;;;;;6087563;23;20090;-58
2022/07/09 03:09:46;;;;;;;3.75;1.92;;;;;;;;;;6087137;23;20431;-59
2022/07/09 03:12:13;;;;;;;2.92;1.98;;;;;;;;;;6068284;23;20014;-59
2022/07/09 03:14:39;;;;;;;4.07;2.20;;;;;;;;;;6088586;23;20018;-59
2022/07/09 03:17:05;;;;;;;4.15;2.53;;;;;;;;;;6086384;23;20042;-59
2022/07/09 03:19:32;;;;;;;3.35;1.92;;;;;;;;;;6088982;23;20070;-59
2022/07/09 03:22:00;;;;;;;3.97;1.90;;;;;;;;;;6088316;23;20025;-59
2022/07/09 03:24:27;;;;;;;2.97;1.95;;;;;;;;;;6066035;23;20030;-59
2022/07/09 03:26:54;;;;;;;3.17;2.22;;;;;;;;;;6091541;23;20022;-59
2022/07/09 03:29:21;;;;;;;3.38;2.00;;;;;;;;;;6089370;23;20021;-59
2022/07/09 03:31:47;;;;;;;1.77;1.60;;;;;;;;;;6087444;23;20030;-58
2022/07/09 03:34:14;;;;;;;2.10;1.52;;;;;;;;;;6090282;23;20519;-59
2022/07/09 03:36:41;;;;;;;3.03;1.80;;;;;;;;;;6084094;23;20263;-59
2022/07/09 03:39:09;;;;;;;3.47;2.10;;;;;;;;;;6091984;23;20022;-59
2022/07/09 03:41:36;;;;;;;7.05;1.67;;;;;;;;;;6086593;23;20034;-59
2022/07/09 03:44:02;;;;;;;2.30;2.10;;;;;;;;;;6082510;23;20026;-57
2022/07/09 03:46:29;;;;;;;2.50;2.00;;;;;;;;;;6089339;23;20070;-59
2022/07/09 03:48:55;;;;;;;2.47;2.10;;;;;;;;;;6076125;23;20082;-59
2022/07/09 03:51:22;;;;;;;2.50;1.88;;;;;;;;;;6089891;23;20055;-58
2022/07/09 03:53:49;;;;;;;2.38;2.13;;;;;;;;;;6080594;23;20018;-59
2022/07/09 03:56:16;;;;;;;2.22;1.88;;;;;;;;;;6076912;23;20018;-59
2022/07/09 03:58:43;;;;;;;1.83;1.50;;;;;;;;;;6086039;23;20019;-60
2022/07/09 04:01:10;;;;;;;3.33;1.90;;;;;;;;;;6087822;23;20014;-60
2022/07/09 04:03:36;;;;;;;3.00;1.83;;;;;;;;;;6090718;23;20029;-59
2022/07/09 04:06:03;;;;;;;1.73;1.60;;;;;;;;;;6087101;23;20015;-59
2022/07/09 04:08:29;;;;;;;2.35;2.00;;;;;;;;;;6083665;23;20143;-58
2022/07/09 04:10:56;;;;;;;3.50;2.15;;;;;;;;;;6086108;23;20048;-58
2022/07/09 04:13:24;;;;;;;2.40;1.90;;;;;;;;;;6085153;23;20046;-58
2022/07/09 04:15:51;;;;;;;2.25;2.05;;;;;;;;;;6090390;23;20042;-58
2022/07/09 04:18:17;;;;;;;1.83;1.67;;;;;;;;;;6083027;23;20022;-58
2022/07/09 04:20:44;;;;;;;2.30;1.85;;;;;;;;;;6092001;23;20014;-58
2022/07/09 04:23:10;;;;;;;2.92;1.70;;;;;;;;;;6086204;23;20051;-59
2022/07/09 04:25:37;;;;;;;2.20;2.00;;;;;;;;;;6083692;23;20023;-59
2022/07/09 04:28:05;;;;;;;4.13;2.25;;;;;;;;;;6087995;23;20014;-59
2022/07/09 04:30:33;;;;;;;2.00;1.85;;;;;;;;;;6088409;23;20015;-58
2022/07/09 04:33:01;;;;;;;5.22;2.10;;;;;;;;;;6092882;23;20077;-59
2022/07/09 04:35:28;;;;;;;2.63;1.70;;;;;;;;;;6081818;23;20015;-59
2022/07/09 04:37:54;;;;;;;2.00;1.83;;;;;;;;;;6088479;23;20018;-58
2022/07/09 04:40:20;;;;;;;3.20;1.90;;;;;;;;;;6086698;23;20014;-59
2022/07/09 04:42:47;;;;;;;3.28;1.67;;;;;;;;;;6090297;23;20045;-58
2022/07/09 04:45:15;;;;;;;4.70;2.65;;;;;;;;;;6086524;23;20026;-58
2022/07/09 04:47:43;;;;;;;1.85;1.70;;;;;;;;;;6081830;23;20018;-58
2022/07/09 04:50:10;;;;;;;2.30;2.10;;;;;;;;;;6090279;23;20259;-59
2022/07/09 04:52:37;;;;;;;2.08;1.88;;;;;;;;;;6081418;23;20018;-58
2022/07/09 04:55:04;;;;;;;2.95;2.03;;;;;;;;;;6086251;23;20050;-58
2022/07/09 04:57:30;;;;;;;2.80;1.85;;;;;;;;;;6079339;23;20019;-58
2022/07/09 04:59:58;;;;;;;2.80;2.08;;;;;;;;;;6086876;23;20014;-58
2022/07/09 05:02:25;;;;;;;2.25;2.05;;;;;;;;;;6081548;23;20019;-58
2022/07/09 05:04:53;;;;;;;4.00;2.25;;;;;;;;;;6087615;23;20031;-58
2022/07/09 05:07:19;;;;;;;3.03;2.17;;;;;;;;;;6087862;23;20033;-58
2022/07/09 05:09:46;;;;;;;3.08;2.22;;;;;;;;;;6085828;23;20164;-59
2022/07/09 05:12:12;;;;;;;2.75;2.13;;;;;;;;;;6086117;23;20037;-58
2022/07/09 05:14:39;;;;;;;3.05;2.30;;;;;;;;;;6086823;23;20014;-58
2022/07/09 05:17:06;;;;;;;4.05;1.85;;;;;;;;;;6085440;23;20014;-59
2022/07/09 05:19:33;;;;;;;4.05;2.30;;;;;;;;;;6087209;23;20022;-58
2022/07/09 05:22:01;;;;;;;3.88;2.30;;;;;;;;;;6088905;23;20019;-59
2022/07/09 05:24:28;;;;;;;5.18;2.33;;;;;;;;;;6077565;23;20029;-59
2022/07/09 05:26:54;;;;;;;2.40;2.05;;;;;;;;;;6083583;23;20018;-58
2022/07/09 05:29:22;;;;;;;3.05;2.22;;;;;;;;;;6085920;23;20058;-58
2022/07/09 05:31:49;;;;;;;2.92;2.22;;;;;;;;;;6089477;23;20038;-58
2022/07/09 05:34:16;;;;;;;6.65;3.00;;;;;;;;;;6087575;23;20014;-59
2022/07/09 05:36:42;;;;;;;2.45;2.20;;;;;;;;;;6080417;23;20045;-56
2022/07/09 05:39:10;;;;;;;2.83;2.33;;;;;;;;;;6089617;23;20019;-57
2022/07/09 05:41:37;;;;;;;3.75;2.65;;;;;;;;;;6078984;23;20018;-58
2022/07/09 05:44:04;;;;;;;2.55;2.30;;;;;;;;;;6090291;23;20015;-58
2022/07/09 05:46:30;;;;;;;3.25;2.22;;;;;;;;;;6085451;23;20015;-58
2022/07/09 05:48:57;;;;;;;6.55;2.80;;;;;;;;;;6087173;23;20014;-58
2022/07/09 05:51:23;;;;;;;3.90;2.33;;;;;;;;;;6083807;23;20713;-58
2022/07/09 05:53:50;;;;;;;2.35;2.15;;;;;;;;;;6088206;23;20019;-59
2022/07/09 05:56:18;;;;;;;3.97;2.72;;;;;;;;;;6083514;23;20014;-58
2022/07/09 05:58:44;;;;;;;2.88;2.35;;;;;;;;;;6087975;23;20018;-58
2022/07/09 06:01:12;;;;;;;2.20;2.00;;;;;;;;;;6079409;23;20019;-59
2022/07/09 06:03:39;;;;;;;3.55;2.45;;;;;;;;;;6091014;23;20084;-58
2022/07/09 06:06:06;;;;;;;2.95;2.60;;;;;;;;;;6078149;23;20046;-59
2022/07/09 06:08:33;;;;;;;4.80;2.30;;;;;;;;;;6090823;23;20409;-59
2022/07/09 06:11:00;;;;;;;6.50;2.90;;;;;;;;;;6084287;23;20046;-59
2022/07/09 06:13:28;;;;;;;2.60;2.40;;;;;;;;;;6092929;23;20014;-59
2022/07/09 06:15:54;;;;;;;2.58;1.92;;;;;;;;;;6085202;23;20041;-58
2022/07/09 06:18:23;;;;;;;2.85;2.10;;;;;;;;;;6086525;23;20015;-59
2022/07/09 06:20:49;;;;;;;3.73;1.97;;;;;;;;;;6093467;23;20025;-58
2022/07/09 06:23:16;;;;;;;2.65;2.05;;;;;;;;;;6086048;23;20015;-59
2022/07/09 06:25:43;;;;;;;3.80;2.22;;;;;;;;;;6091240;23;20030;-57
2022/07/09 06:28:10;;;;;;;3.17;1.73;;;;;;;;;;6084302;23;20445;-58
2022/07/09 06:30:38;;;;;;;2.20;1.98;;;;;;;;;;6090588;23;20309;-58
2022/07/09 06:33:05;;;;;;;4.15;2.00;;;;;;;;;;6086943;23;20357;-57
2022/07/09 06:35:32;;;;;;;2.28;1.80;;;;;;;;;;6089694;23;20018;-57
2022/07/09 06:38:01;;;;;;;2.40;1.75;;;;;;;;;;6087708;23;20098;-58
2022/07/09 06:40:27;;;;;;;2.70;1.80;;;;;;;;;;6086827;23;20014;-57
2022/07/09 06:42:54;;;;;;;1.67;1.58;;;;;;;;;;6088469;23;20046;-58
2022/07/09 06:45:20;;;;;;;1.98;1.67;;;;;;;;;;6086878;23;20022;-58
2022/07/09 06:47:48;;;;;;;2.03;1.55;;;;;;;;;;6087383;23;20021;-58
2022/07/09 06:50:15;;;;;;;2.88;1.85;;;;;;;;;;6086315;23;20433;-57
2022/07/09 06:52:41;;;;;;;1.67;1.58;;;;;;;;;;6080227;23;20053;-57
2022/07/09 06:55:08;;;;;;;2.35;2.05;;;;;;;;;;6088906;23;20018;-57
2022/07/09 06:57:35;;;;;;;1.95;1.63;;;;;;;;;;6089301;23;20018;-57
2022/07/09 07:00:01;;;;;;;2.38;1.80;;;;;;;;;;6086682;23;20015;-58
2022/07/09 07:02:28;;;;;;;1.42;1.35;;;;;;;;;;6085427;23;20020;-58
2022/07/09 07:04:56;;;;;;;3.17;1.60;;;;;;;;;;6088646;23;20026;-58
2022/07/09 07:07:22;;;;;;;2.85;2.03;;;;;;;;;;6085501;23;20439;-58
2022/07/09 07:09:49;;;;;;;2.20;1.50;;;;;;;;;;6081721;23;20021;-58
2022/07/09 07:12:15;;;;;;;2.85;1.60;;;;;;;;;;6087979;23;20014;-58
2022/07/09 07:14:42;;;;;;;2.97;1.80;;;;;;;;;;6085664;23;20042;-58
2022/07/09 07:17:09;;;;;;;2.80;1.73;;;;;;;;;;6086651;23;20414;-58
2022/07/09 07:19:35;;;;;;;2.95;1.90;;;;;;;;;;6084727;23;20018;-58
2022/07/09 07:22:03;;;;;;;2.42;1.60;;;;;;;;;;6091033;23;20022;-54
2022/07/09 07:24:31;;;;;;;2.10;1.58;;;;;;;;;;6083354;23;20050;-58
2022/07/09 07:26:57;;;;;;;2.00;1.30;;;;;;;;;;6091540;23;20330;-58
2022/07/09 07:29:24;;;;;;;1.73;1.60;;;;;;;;;;6085535;23;20572;-58
2022/07/09 07:31:50;;;;;;;2.60;1.92;;;;;;;;;;6084265;23;20104;-58
2022/07/09 07:34:18;;;;;;;2.10;1.90;;;;;;;;;;6085696;23;20014;-58
2022/07/09 07:36:45;;;;;;;3.22;1.63;;;;;;;;;;6088563;23;20022;-58
2022/07/09 07:39:13;;;;;;;2.50;1.77;;;;;;;;;;6085286;23;20015;-58
2022/07/09 07:41:39;;;;;;;3.05;1.38;;;;;;;;;;6087712;23;20055;-58
2022/07/09 07:44:05;;;;;;;1.80;1.70;;;;;;;;;;6084992;23;20015;-58
2022/07/09 07:46:32;;;;;;;2.80;1.50;;;;;;;;;;6092275;23;20026;-58
2022/07/09 07:48:58;;;;;;;2.03;1.40;;;;;;;;;;6083706;23;20046;-58
2022/07/09 07:51:25;;;;;;;1.60;1.50;;;;;;;;;;6090608;23;20014;-58
2022/07/09 07:53:52;;;;;;;2.83;2.05;;;;;;;;;;6083079;23;20014;-59
2022/07/09 07:56:19;;;;;;;1.52;1.40;;;;;;;;;;6080771;23;20082;-59
2022/07/09 07:58:46;;;;;;;3.70;1.80;;;;;;;;;;6083225;23;20022;-60
2022/07/09 08:01:12;;;;;;;1.83;1.30;;;;;;;;;;6087903;23;20452;-59
2022/07/09 08:03:39;;;;;;;3.72;1.30;;;;;;;;;;6084477;23;20022;-58
2022/07/09 08:06:07;;;;;;;1.63;1.30;;;;;;;;;;6080045;23;20060;-58
2022/07/09 08:08:34;;;;;;;1.63;1.50;;;;;;;;;;6083305;23;20034;-58
2022/07/09 08:11:02;;;;;;;1.67;1.10;;;;;;;;;;6078140;23;20014;-59
2022/07/09 08:13:30;;;;;;;1.90;1.08;;;;;;;;;;6089547;23;20015;-58
2022/07/09 08:15:57;;;;;;;1.27;1.02;;;;;;;;;;6078764;23;20015;-58
2022/07/09 08:18:23;;;;;;;1.73;1.05;;;;;;;;;;6090607;23;20042;-58
2022/07/09 08:20:51;;;;;;;2.15;0.63;;;;;;;;;;6084532;23;20469;-59
2022/07/09 08:23:18;;;;;;;1.50;0.93;;;;;;;;;;6089106;23;20014;-60
2022/07/09 08:25:45;;;;;;;1.10;0.75;;;;;;;;;;6085322;23;20022;-58
2022/07/09 08:28:11;;;;;;;0.70;0.70;;;;;;;;;;6085686;23;20015;-59
2022/07/09 08:30:39;;;;;;;1.42;0.90;;;;;;;;;;6084435;23;20019;-58
2022/07/09 08:33:05;;;;;;;2.10;0.82;;;;;;;;;;6089043;23;20015;-59
2022/07/09 08:35:32;;;;;;;0.70;0.60;;;;;;;;;;6087686;23;20022;-59
2022/07/09 08:37:59;;;;;;;0.70;0.70;;;;;;;;;;6084919;23;20029;-59
2022/07/09 08:40:26;;;;;;;0.60;0.60;;;;;;;;;;6086920;23;20015;-59
2022/07/09 08:42:53;;;;;;;0.50;0.50;;;;;;;;;;6085485;23;20073;-59
2022/07/09 08:45:21;;;;;;;0.55;0.55;;;;;;;;;;6086213;23;20015;-58
2022/07/09 08:47:49;;;;;;;0.60;0.60;;;;;;;;;;6084982;23;20015;-59
2022/07/09 08:50:15;;;;;;;0.85;0.68;;;;;;;;;;6088612;23;20085;-59
2022/07/09 08:52:42;;;;;;;1.95;0.98;;;;;;;;;;6077119;23;20014;-59
2022/07/09 08:55:09;;;;;;;0.43;0.40;;;;;;;;;;6088443;23;20014;-58
2022/07/09 08:57:35;;;;;;;1.15;1.05;;;;;;;;;;6085605;23;20089;-58
2022/07/09 09:00:04;;;;;;;0.50;0.50;;;;;;;;;;6087350;23;20026;-58
2022/07/09 09:02:35;;;;;;;1.50;0.70;;;;;;;;;;6080002;23;20363;-58
2022/07/09 09:05:06;;;;;;;1.25;0.70;;;;;;;;;;6089219;23;20029;-58
2022/07/09 09:07:34;;;;;;;1.65;0.50;;;;;;;;;;6085824;23;20081;-59
2022/07/09 09:10:00;;;;;;;0.63;0.63;;;;;;;;;;6085383;23;20018;-59
2022/07/09 09:12:28;;;;;;;0.50;0.43;;;;;;;;;;6068622;23;20042;-59
2022/07/09 09:14:55;;;;;;;1.48;0.40;;;;;;;;;;6082362;23;20050;-59
2022/07/09 09:17:22;;;;;;;1.13;0.60;;;;;;;;;;6083119;23;20014;-58
2022/07/09 09:19:48;;;;;;;0.40;0.40;;;;;;;;;;6082514;23;20021;-58
2022/07/09 09:22:17;;;;;;;1.25;0.50;;;;;;;;;;6087862;23;20044;-58
2022/07/09 09:24:45;;;;;;;1.63;0.70;;;;;;;;;;6080733;23;20014;-58
2022/07/09 09:27:11;;;;;;;0.73;0.70;;;;;;;;;;6068338;23;20030;-59
2022/07/09 09:29:50;;;;;;;0.57;0.57;;;;;;;;;;6067942;23;20426;-58
2022/07/09 09:32:19;;;;;;;1.33;0.63;;;;;;;;;;6059874;23;20014;-59
2022/07/09 09:34:49;;;;;;;0.88;0.70;;;;;;;;;;6077379;23;20491;-59
2022/07/09 09:37:25;;;;;;;0.80;0.75;;;;;;;;;;6082249;23;20545;-59
2022/07/09 09:39:52;;;;;;;1.45;0.80;;;;;;;;;;6089185;23;20018;-59
2022/07/09 09:42:19;;;;;;;1.38;0.70;;;;;;;;;;6075917;23;20081;-59
2022/07/09 09:44:46;;;;;;;1.95;1.75;;;;;;;;;;6073908;23;20022;-59
2022/07/09 09:47:13;;;;;;;1.15;0.82;;;;;;;;;;6088388;23;20070;-59
2022/07/09 09:49:42;;;;;;;1.13;0.65;;;;;;;;;;6079795;23;20414;-58
2022/07/09 09:52:09;;;;;;;1.50;0.90;;;;;;;;;;6086187;23;20090;-59
2022/07/09 09:54:38;;;;;;;1.65;0.80;;;;;;;;;;6082471;23;20018;-58
2022/07/09 09:57:06;;;;;;;0.77;0.70;;;;;;;;;;6090489;23;20028;-59
2022/07/09 09:59:34;;;;;;;0.98;0.80;;;;;;;;;;6081691;23;20018;-59
2022/07/09 10:02:01;;;;;;;1.15;0.98;;;;;;;;;;6096501;23;20018;-59
2022/07/09 10:04:28;;;;;;;1.85;1.27;;;;;;;;;;6076667;23;20018;-58
2022/07/09 10:06:55;;;;;;;1.30;0.90;;;;;;;;;;6093489;23;20030;-59
2022/07/09 10:09:21;;;;;;;1.33;0.70;;;;;;;;;;6078517;23;20015;-58
2022/07/09 10:11:49;;;;;;;1.17;0.77;;;;;;;;;;6086580;23;20042;-59
2022/07/09 10:14:17;;;;;;;3.42;0.90;;;;;;;;;;6079853;23;20066;-59
2022/07/09 10:16:44;;;;;;;1.80;0.88;;;;;;;;;;6085283;23;20069;-56
2022/07/09 10:19:10;;;;;;;1.27;0.70;;;;;;;;;;6085486;23;20015;-58
2022/07/09 10:21:38;;;;;;;1.23;0.98;;;;;;;;;;6085017;23;20029;-59
2022/07/09 10:24:05;;;;;;;2.75;1.05;;;;;;;;;;6082052;23;20018;-58
2022/07/09 10:26:44;;;;;;;1.83;0.88;;;;;;;;;;6082907;23;20038;-59
2022/07/09 10:29:11;;;;;;;;;;;;;;;;;;6083794;23;20083;-56
2022/07/09 10:31:39;;;;;;;1.48;0.90;;;;;;;;;;6068842;23;19921;-59
2022/07/09 10:34:09;;;;;;;0.88;0.88;;;;;;;;;;6083625;23;20046;-59
2022/07/09 10:36:36;;;;;;;1.88;0.80;;;;;;;;;;6077547;23;20022;-59
2022/07/09 10:39:12;;;;;;;1.33;1.00;;;;;;;;;;6085930;23;20018;-58
2022/07/09 10:41:38;;;;;;;3.17;0.80;;;;;;;;;;6074047;23;20018;-59
2022/07/09 10:44:05;;;;;;;0.95;0.77;;;;;;;;;;6085818;23;20014;-57
2022/07/09 10:46:33;;;;;;;0.80;0.80;;;;;;;;;;6080166;23;20053;-59
2022/07/09 10:49:01;;;;;;;2.33;0.90;;;;;;;;;;6082435;23;20018;-59
2022/07/09 10:51:28;;;;;;;1.08;0.80;;;;;;;;;;6080760;23;20065;-58
2022/07/09 10:53:54;;;;;;;0.80;0.80;;;;;;;;;;6086375;23;20074;-57
2022/07/09 10:56:22;;;;;;;1.80;0.80;;;;;;;;;;6068390;23;20049;-57
2022/07/09 10:58:48;;;;;;;0.88;0.60;;;;;;;;;;6082320;23;20025;-57
2022/07/09 11:01:19;;;;;;;3.13;0.95;;;;;;;;;;6078846;23;20023;-57
2022/07/09 11:03:49;;;;;;;1.70;0.90;;;;;;;;;;6083331;23;20022;-57
2022/07/09 11:06:17;;;;;;;0.95;0.80;;;;;;;;;;6073806;23;20797;-58
2022/07/09 11:08:43;;;;;;;0.93;0.82;;;;;;;;;;6076891;23;20014;-58
2022/07/09 11:11:10;;;;;;;1.08;0.98;;;;;;;;;;6075271;23;20014;-60
2022/07/09 11:13:36;;;;;;;2.38;0.75;;;;;;;;;;6070440;23;20097;-57
2022/07/09 11:16:04;;;;;;;0.70;0.60;;;;;;;;;;6082748;23;20046;-56
2022/07/09 11:18:31;;;;;;;0.82;0.50;;;;;;;;;;6084798;23;20014;-58
2022/07/09 11:20:58;;;;;;;0.75;0.68;;;;;;;;;;6086249;23;20339;-57
2022/07/09 11:23:26;;;;;;;1.83;0.68;;;;;;;;;;6086511;23;20097;-58
2022/07/09 11:25:52;;;;;;;1.08;0.65;;;;;;;;;;6074833;23;20027;-58
2022/07/09 11:28:20;;;;;;;0.70;0.60;;;;;;;;;;6086119;23;20592;-57
2022/07/09 11:30:47;;;;;;;1.65;0.52;;;;;;;;;;6073871;23;20394;-58
2022/07/09 11:33:14;;;;;;;2.90;0.93;;;;;;;;;;6078626;23;20022;-57
2022/07/09 11:35:44;;;;;;;1.13;0.50;;;;;;;;;;6084361;23;20038;-58
2022/07/09 11:38:11;;;;;;;1.27;0.80;;;;;;;;;;6085849;23;20053;-58
2022/07/09 11:40:40;;;;;;;1.80;0.70;;;;;;;;;;6077810;23;20018;-58
2022/07/09 11:43:13;;;;;;;0.67;0.67;;;;;;;;;;6082736;23;20276;-58
2022/07/09 11:45:40;;;;;;;0.93;0.65;;;;;;;;;;6073174;23;20559;-58
2022/07/09 11:48:07;;;;;;;0.85;0.68;;;;;;;;;;6078645;23;20046;-58
2022/07/09 11:50:34;;;;;;;0.50;0.50;;;;;;;;;;6073608;23;20273;-58
2022/07/09 11:53:01;;;;;;;0.68;0.50;;;;;;;;;;6072615;23;20029;-58
2022/07/09 11:55:31;;;;;;;1.35;0.70;;;;;;;;;;6075255;23;20046;-58
2022/07/09 11:57:59;;;;;;;0.80;0.80;;;;;;;;;;6086060;23;20033;-58
2022/07/09 12:00:27;;;;;;;0.70;0.68;;;;;;;;;;6077487;23;20417;-57
2022/07/09 12:02:53;;;;;;;1.67;0.65;;;;;;;;;;6078851;23;20114;-58
2022/07/09 12:05:27;;;;;;;0.68;0.68;;;;;;;;;;6084077;23;20108;-58
2022/07/09 12:07:53;;;;;;;0.65;0.43;;;;;;;;;;6077854;23;20415;-58
2022/07/09 12:10:26;;;;;;;2.10;0.70;;;;;;;;;;6086526;23;20014;-57
2022/07/09 12:12:52;;;;;;;0.50;0.50;;;;;;;;;;6072140;23;20029;-58
2022/07/09 12:15:20;;;;;;;1.08;0.60;;;;;;;;;;6086139;23;20015;-58
2022/07/09 12:17:51;;;;;;;0.47;0.38;;;;;;;;;;6081139;23;20037;-57
2022/07/09 12:20:17;;;;;;;0.60;0.43;;;;;;;;;;6083731;23;20038;-58
2022/07/09 12:22:44;;;;;;;0.75;0.50;;;;;;;;;;6079400;23;20014;-57
2022/07/09 12:25:10;;;;;;;0.57;0.50;;;;;;;;;;6088946;23;20021;-58
2022/07/09 12:27:37;;;;;;;0.70;0.70;;;;;;;;;;6077226;23;20037;-58
2022/07/09 12:30:04;;;;;;;0.50;0.50;;;;;;;;;;6087928;23;20018;-58
2022/07/09 12:32:32;;;;;;;0.60;0.60;;;;;;;;;;6084088;23;20014;-58
2022/07/09 12:34:59;;;;;;;0.97;0.50;;;;;;;;;;6081438;23;20412;-57
2022/07/09 12:37:25;;;;;;;0.40;0.40;;;;;;;;;;6081007;23;20144;-58
2022/07/09 12:39:53;;;;;;;0.60;0.60;;;;;;;;;;6080108;23;20031;-58
2022/07/09 12:42:20;;;;;;;1.05;0.60;;;;;;;;;;6081143;23;20089;-59
2022/07/09 12:44:46;;;;;;;0.63;0.63;;;;;;;;;;6077121;23;20878;-58
2022/07/09 12:47:13;;;;;;;0.50;0.50;;;;;;;;;;6085151;23;20022;-58
2022/07/09 12:49:41;;;;;;;0.82;0.82;;;;;;;;;;6080988;23;20125;-57
2022/07/09 12:52:08;;;;;;;1.00;0.70;;;;;;;;;;6079774;23;20018;-58
2022/07/09 12:54:34;;;;;;;0.75;0.60;;;;;;;;;;6080703;23;20015;-58
2022/07/09 12:57:01;;;;;;;1.40;0.52;;;;;;;;;;6083559;23;20018;-58
2022/07/09 12:59:27;;;;;;;4.20;0.50;;;;;;;;;;6086305;23;20524;-58
2022/07/09 13:01:54;;;;;;;0.60;0.60;;;;;;;;;;6082329;23;20018;-59
2022/07/09 13:04:20;;;;;;;3.08;0.52;;;;;;;;;;6082356;23;20018;-58
2022/07/09 13:06:49;;;;;;;0.90;0.75;;;;;;;;;;6057762;23;20365;-58
2022/07/09 13:09:15;;;;;;;2.38;0.55;;;;;;;;;;6089965;23;20014;-58
2022/07/09 13:11:42;;;;;;;0.85;0.50;;;;;;;;;;6069785;23;20083;-58
2022/07/09 13:14:08;;;;;;;2.28;0.50;;;;;;;;;;6079987;23;20349;-59
2022/07/09 13:16:35;;;;;;;0.65;0.50;;;;;;;;;;6077945;23;20420;-58
2022/07/09 13:19:02;;;;;;;0.85;0.50;;;;;;;;;;6084320;23;20018;-59
2022/07/09 13:21:29;;;;;;;2.55;0.73;;;;;;;;;;6083678;23;20015;-58
2022/07/09 13:23:57;;;;;;;0.88;0.50;;;;;;;;;;6081395;23;20022;-58
2022/07/09 13:26:24;;;;;;;0.80;0.60;;;;;;;;;;6074407;23;20495;-58
2022/07/09 13:28:50;;;;;;;1.42;0.40;;;;;;;;;;6082491;23;20022;-57
2022/07/09 13:31:17;;;;;;;1.70;0.40;;;;;;;;;;6076679;23;20022;-58
2022/07/09 13:33:44;;;;;;;0.95;0.50;;;;;;;;;;6079385;23;20053;-58
2022/07/09 13:36:10;;;;;;;1.58;0.63;;;;;;;;;;6078853;23;20046;-58
2022/07/09 13:38:37;;;;;;;0.70;0.50;;;;;;;;;;6078975;23;20022;-57
2022/07/09 13:41:05;;;;;;;0.20;0.20;;;;;;;;;;6073228;23;20018;-57
2022/07/09 13:43:32;;;;;;;0.20;0.20;;;;;;;;;;6076814;23;20019;-57
2022/07/09 13:45:59;;;;;;;0.52;0.40;;;;;;;;;;6076674;23;20081;-58
2022/07/09 13:48:27;;;;;;;0.63;0.45;;;;;;;;;;6078681;23;20029;-58
2022/07/09 13:50:53;;;;;;;0.63;0.57;;;;;;;;;;6068764;23;20386;-56
2022/07/09 13:53:20;;;;;;;0.45;0.35;;;;;;;;;;6084613;23;20019;-57
2022/07/09 13:55:47;;;;;;;0.60;0.60;;;;;;;;;;6073123;23;20070;-57
2022/07/09 13:58:15;;;;;;;1.70;0.40;;;;;;;;;;6083443;23;20643;-56
2022/07/09 14:00:41;;;;;;;1.02;0.50;;;;;;;;;;6078404;23;20025;-56
2022/07/09 14:03:08;;;;;;;1.48;0.50;;;;;;;;;;6088795;23;20015;-57
2022/07/09 14:05:36;;;;;;;0.57;0.40;;;;;;;;;;6078673;23;20042;-57
2022/07/09 14:08:03;;;;;;;0.70;0.38;;;;;;;;;;6069060;23;20041;-55
2022/07/09 14:10:29;;;;;;;0.55;0.55;;;;;;;;;;6088260;23;20015;-56
2022/07/09 14:12:56;;;;;;;1.50;0.60;;;;;;;;;;6075124;23;20431;-57
2022/07/09 14:15:23;;;;;;;0.30;0.30;;;;;;;;;;6088039;23;20046;-58
2022/07/09 14:17:50;;;;;;;0.85;0.55;;;;;;;;;;6080211;23;20074;-59
2022/07/09 14:20:17;;;;;;;1.05;0.40;;;;;;;;;;6085813;23;20018;-57
2022/07/09 14:22:43;;;;;;;0.68;0.50;;;;;;;;;;6081794;23;20018;-55
2022/07/09 14:25:10;;;;;;;2.15;0.30;;;;;;;;;;6087575;23;20014;-58
2022/07/09 14:27:36;;;;;;;0.98;0.40;;;;;;;;;;6076498;23;20105;-57
2022/07/09 14:30:03;;;;;;;1.70;0.50;;;;;;;;;;6087940;23;20043;-57
2022/07/09 14:32:32;;;;;;;0.32;0.32;;;;;;;;;;6085409;23;20042;-58
2022/07/09 14:34:59;;;;;;;0.80;0.50;;;;;;;;;;6085724;23;20019;-57
2022/07/09 14:37:27;;;;;;;0.47;0.30;;;;;;;;;;6077678;23;20253;-58
2022/07/09 14:39:54;;;;;;;0.90;0.50;;;;;;;;;;6086783;23;20018;-56
2022/07/09 14:42:22;;;;;;;1.88;0.40;;;;;;;;;;6075563;23;20018;-58